sensor_id;sensor_type;location;lat;lon;timestamp;P1;durP1;ratioP1;P2;durP2;ratioP2
20067;SDS011;10194;50.824;7.134;2023-04-03T00:01:37;230.90;;;209.60;;
20067;SDS011;10194;50.824;7.134;2023-04-03T00:04:04;233.37;;;211.93;;
20067;SDS011;10194;50.824;7.134;2023-04-03T00:06:30;234.60;;;213.20;;
20067;SDS011;10194;50.824;7.134;2023-04-03T00:08:57;233.63;;;212.23;;
20067;SDS011;10194;50.824;7.134;2023-04-03T00:11:23;230.97;;;209.47;;
20067;SDS011;10194;50.824;7.134;2023-04-03T00:13:50;235.47;;;213.93;;
20067;SDS011;10194;50.824;7.134;2023-04-03T00:16:16;232.50;;;211.27;;
20067;SDS011;10194;50.824;7.134;2023-04-03T00:18:42;232.37;;;210.73;;
20067;SDS011;10194;50.824;7.134;2023-04-03T00:21:08;233.93;;;212.50;;
20067;SDS011;10194;50.824;7.134;2023-04-03T00:23:37;230.97;;;209.87;;
20067;SDS011;10194;50.824;7.134;2023-04-03T00:26:03;231.87;;;210.00;;
20067;SDS011;10194;50.824;7.134;2023-04-03T00:28:29;235.03;;;213.47;;
20067;SDS011;10194;50.824;7.134;2023-04-03T00:30:55;233.43;;;211.90;;
20067;SDS011;10194;50.824;7.134;2023-04-03T00:33:20;232.17;;;210.83;;
20067;SDS011;10194;50.824;7.134;2023-04-03T00:35:47;236.20;;;214.67;;
20067;SDS011;10194;50.824;7.134;2023-04-03T00:38:14;240.60;;;218.33;;
20067;SDS011;10194;50.824;7.134;2023-04-03T00:40:44;234.80;;;213.13;;
20067;SDS011;10194;50.824;7.134;2023-04-03T00:43:13;238.90;;;217.07;;
20067;SDS011;10194;50.824;7.134;2023-04-03T00:45:48;238.97;;;216.73;;
20067;SDS011;10194;50.824;7.134;2023-04-03T00:48:18;238.93;;;216.77;;
20067;SDS011;10194;50.824;7.134;2023-04-03T00:50:50;240.37;;;218.23;;
20067;SDS011;10194;50.824;7.134;2023-04-03T00:53:19;241.17;;;219.00;;
20067;SDS011;10194;50.824;7.134;2023-04-03T00:55:51;244.60;;;222.20;;
20067;SDS011;10194;50.824;7.134;2023-04-03T00:58:19;239.30;;;217.23;;
20067;SDS011;10194;50.824;7.134;2023-04-03T01:00:49;244.57;;;222.47;;
20067;SDS011;10194;50.824;7.134;2023-04-03T01:03:22;245.63;;;223.53;;
20067;SDS011;10194;50.824;7.134;2023-04-03T01:05:48;246.57;;;224.43;;
20067;SDS011;10194;50.824;7.134;2023-04-03T01:08:15;245.00;;;222.77;;
20067;SDS011;10194;50.824;7.134;2023-04-03T01:10:41;241.77;;;219.63;;
20067;SDS011;10194;50.824;7.134;2023-04-03T01:13:17;243.13;;;220.93;;
20067;SDS011;10194;50.824;7.134;2023-04-03T01:15:54;246.27;;;224.03;;
20067;SDS011;10194;50.824;7.134;2023-04-03T01:18:22;242.00;;;219.60;;
20067;SDS011;10194;50.824;7.134;2023-04-03T01:24:01;247.17;;;225.27;;
20067;SDS011;10194;50.824;7.134;2023-04-03T01:26:48;252.57;;;230.57;;
20067;SDS011;10194;50.824;7.134;2023-04-03T01:29:15;243.80;;;222.03;;
20067;SDS011;10194;50.824;7.134;2023-04-03T01:31:54;241.83;;;219.90;;
20067;SDS011;10194;50.824;7.134;2023-04-03T01:34:23;243.67;;;221.87;;
20067;SDS011;10194;50.824;7.134;2023-04-03T01:36:50;244.50;;;222.47;;
20067;SDS011;10194;50.824;7.134;2023-04-03T01:39:16;244.83;;;223.37;;
20067;SDS011;10194;50.824;7.134;2023-04-03T01:41:42;240.73;;;219.33;;
20067;SDS011;10194;50.824;7.134;2023-04-03T01:44:08;238.83;;;216.97;;
20067;SDS011;10194;50.824;7.134;2023-04-03T01:46:34;243.23;;;221.33;;
20067;SDS011;10194;50.824;7.134;2023-04-03T01:49:00;242.10;;;220.60;;
20067;SDS011;10194;50.824;7.134;2023-04-03T01:51:26;242.13;;;220.23;;
20067;SDS011;10194;50.824;7.134;2023-04-03T01:53:52;245.97;;;223.70;;
20067;SDS011;10194;50.824;7.134;2023-04-03T01:56:18;241.97;;;220.77;;
20067;SDS011;10194;50.824;7.134;2023-04-03T01:58:43;245.17;;;222.97;;
20067;SDS011;10194;50.824;7.134;2023-04-03T02:01:09;249.73;;;228.33;;
20067;SDS011;10194;50.824;7.134;2023-04-03T02:03:35;244.77;;;223.37;;
20067;SDS011;10194;50.824;7.134;2023-04-03T02:06:01;253.37;;;231.60;;
20067;SDS011;10194;50.824;7.134;2023-04-03T02:08:27;251.80;;;230.70;;
20067;SDS011;10194;50.824;7.134;2023-04-03T02:10:53;254.33;;;232.90;;
20067;SDS011;10194;50.824;7.134;2023-04-03T02:13:19;253.13;;;231.70;;
20067;SDS011;10194;50.824;7.134;2023-04-03T02:15:46;256.73;;;235.53;;
20067;SDS011;10194;50.824;7.134;2023-04-03T02:18:12;255.80;;;234.53;;
20067;SDS011;10194;50.824;7.134;2023-04-03T02:20:38;256.30;;;234.70;;
20067;SDS011;10194;50.824;7.134;2023-04-03T02:23:04;261.13;;;239.67;;
20067;SDS011;10194;50.824;7.134;2023-04-03T02:25:30;258.03;;;236.73;;
20067;SDS011;10194;50.824;7.134;2023-04-03T02:27:57;261.40;;;239.80;;
20067;SDS011;10194;50.824;7.134;2023-04-03T02:30:23;258.47;;;237.30;;
20067;SDS011;10194;50.824;7.134;2023-04-03T02:32:49;258.37;;;237.27;;
20067;SDS011;10194;50.824;7.134;2023-04-03T02:35:15;260.50;;;239.73;;
20067;SDS011;10194;50.824;7.134;2023-04-03T02:37:41;264.17;;;243.30;;
20067;SDS011;10194;50.824;7.134;2023-04-03T02:40:07;259.27;;;237.80;;
20067;SDS011;10194;50.824;7.134;2023-04-03T02:42:33;261.27;;;240.10;;
20067;SDS011;10194;50.824;7.134;2023-04-03T02:44:59;260.20;;;239.07;;
20067;SDS011;10194;50.824;7.134;2023-04-03T02:47:28;262.53;;;240.83;;
20067;SDS011;10194;50.824;7.134;2023-04-03T02:49:54;260.63;;;239.13;;
20067;SDS011;10194;50.824;7.134;2023-04-03T02:52:19;259.03;;;237.63;;
20067;SDS011;10194;50.824;7.134;2023-04-03T02:54:45;259.03;;;237.17;;
20067;SDS011;10194;50.824;7.134;2023-04-03T02:57:11;258.50;;;236.87;;
20067;SDS011;10194;50.824;7.134;2023-04-03T02:59:37;263.47;;;242.23;;
20067;SDS011;10194;50.824;7.134;2023-04-03T03:02:07;258.73;;;237.93;;
20067;SDS011;10194;50.824;7.134;2023-04-03T03:04:34;262.90;;;241.67;;
20067;SDS011;10194;50.824;7.134;2023-04-03T03:07:00;264.57;;;244.07;;
20067;SDS011;10194;50.824;7.134;2023-04-03T03:09:26;264.13;;;243.17;;
20067;SDS011;10194;50.824;7.134;2023-04-03T03:11:51;265.37;;;244.27;;
20067;SDS011;10194;50.824;7.134;2023-04-03T03:14:17;263.17;;;242.80;;
20067;SDS011;10194;50.824;7.134;2023-04-03T03:16:43;262.47;;;241.87;;
20067;SDS011;10194;50.824;7.134;2023-04-03T03:19:09;261.47;;;240.63;;
20067;SDS011;10194;50.824;7.134;2023-04-03T03:21:35;261.60;;;241.20;;
20067;SDS011;10194;50.824;7.134;2023-04-03T03:24:01;263.93;;;243.23;;
20067;SDS011;10194;50.824;7.134;2023-04-03T03:26:27;262.47;;;241.87;;
20067;SDS011;10194;50.824;7.134;2023-04-03T03:28:53;261.07;;;240.57;;
20067;SDS011;10194;50.824;7.134;2023-04-03T03:31:19;261.97;;;241.47;;
20067;SDS011;10194;50.824;7.134;2023-04-03T03:33:45;260.63;;;240.10;;
20067;SDS011;10194;50.824;7.134;2023-04-03T03:36:11;263.53;;;243.17;;
20067;SDS011;10194;50.824;7.134;2023-04-03T03:38:37;264.83;;;244.30;;
20067;SDS011;10194;50.824;7.134;2023-04-03T03:41:03;261.63;;;241.10;;
20067;SDS011;10194;50.824;7.134;2023-04-03T03:43:28;260.63;;;240.23;;
20067;SDS011;10194;50.824;7.134;2023-04-03T03:45:54;262.93;;;241.80;;
20067;SDS011;10194;50.824;7.134;2023-04-03T03:48:21;263.40;;;242.93;;
20067;SDS011;10194;50.824;7.134;2023-04-03T03:50:48;263.23;;;242.73;;
20067;SDS011;10194;50.824;7.134;2023-04-03T03:53:14;263.57;;;242.57;;
20067;SDS011;10194;50.824;7.134;2023-04-03T03:55:40;266.30;;;245.60;;
20067;SDS011;10194;50.824;7.134;2023-04-03T03:58:06;263.20;;;242.20;;
20067;SDS011;10194;50.824;7.134;2023-04-03T04:00:32;261.07;;;240.23;;
20067;SDS011;10194;50.824;7.134;2023-04-03T04:02:58;263.50;;;242.67;;
20067;SDS011;10194;50.824;7.134;2023-04-03T04:05:37;261.87;;;241.33;;
20067;SDS011;10194;50.824;7.134;2023-04-03T04:08:02;262.50;;;241.90;;
20067;SDS011;10194;50.824;7.134;2023-04-03T04:10:28;268.10;;;246.87;;
20067;SDS011;10194;50.824;7.134;2023-04-03T04:12:54;261.97;;;241.00;;
20067;SDS011;10194;50.824;7.134;2023-04-03T04:15:20;262.13;;;241.53;;
20067;SDS011;10194;50.824;7.134;2023-04-03T04:17:46;267.60;;;246.33;;
20067;SDS011;10194;50.824;7.134;2023-04-03T04:20:12;267.07;;;246.07;;
20067;SDS011;10194;50.824;7.134;2023-04-03T04:22:38;262.03;;;241.50;;
20067;SDS011;10194;50.824;7.134;2023-04-03T04:25:04;262.67;;;242.27;;
20067;SDS011;10194;50.824;7.134;2023-04-03T04:27:30;265.47;;;244.77;;
20067;SDS011;10194;50.824;7.134;2023-04-03T04:29:56;264.83;;;244.00;;
20067;SDS011;10194;50.824;7.134;2023-04-03T04:32:22;265.30;;;244.80;;
20067;SDS011;10194;50.824;7.134;2023-04-03T04:34:47;272.07;;;250.97;;
20067;SDS011;10194;50.824;7.134;2023-04-03T04:37:13;266.83;;;246.10;;
20067;SDS011;10194;50.824;7.134;2023-04-03T04:39:39;263.90;;;243.23;;
20067;SDS011;10194;50.824;7.134;2023-04-03T04:42:05;267.03;;;246.07;;
20067;SDS011;10194;50.824;7.134;2023-04-03T04:44:32;266.53;;;245.40;;
20067;SDS011;10194;50.824;7.134;2023-04-03T04:46:57;269.20;;;248.07;;
20067;SDS011;10194;50.824;7.134;2023-04-03T04:49:23;267.47;;;246.63;;
20067;SDS011;10194;50.824;7.134;2023-04-03T04:51:49;267.47;;;246.33;;
20067;SDS011;10194;50.824;7.134;2023-04-03T04:54:15;268.40;;;247.60;;
20067;SDS011;10194;50.824;7.134;2023-04-03T04:56:40;264.80;;;243.90;;
20067;SDS011;10194;50.824;7.134;2023-04-03T04:59:06;263.97;;;243.37;;
20067;SDS011;10194;50.824;7.134;2023-04-03T05:01:32;265.77;;;244.83;;
20067;SDS011;10194;50.824;7.134;2023-04-03T05:03:57;272.63;;;251.67;;
20067;SDS011;10194;50.824;7.134;2023-04-03T05:06:23;268.40;;;247.53;;
20067;SDS011;10194;50.824;7.134;2023-04-03T05:08:49;269.70;;;248.63;;
20067;SDS011;10194;50.824;7.134;2023-04-03T05:11:15;268.73;;;247.80;;
20067;SDS011;10194;50.824;7.134;2023-04-03T05:13:41;266.50;;;245.27;;
20067;SDS011;10194;50.824;7.134;2023-04-03T05:16:06;265.00;;;244.00;;
20067;SDS011;10194;50.824;7.134;2023-04-03T05:18:32;267.53;;;246.60;;
20067;SDS011;10194;50.824;7.134;2023-04-03T05:20:58;265.20;;;244.23;;
20067;SDS011;10194;50.824;7.134;2023-04-03T05:23:24;271.07;;;250.00;;
20067;SDS011;10194;50.824;7.134;2023-04-03T05:25:50;269.07;;;247.60;;
20067;SDS011;10194;50.824;7.134;2023-04-03T05:28:15;260.23;;;239.70;;
20067;SDS011;10194;50.824;7.134;2023-04-03T05:30:41;265.60;;;244.60;;
20067;SDS011;10194;50.824;7.134;2023-04-03T05:33:07;263.97;;;243.27;;
20067;SDS011;10194;50.824;7.134;2023-04-03T05:35:33;262.30;;;241.73;;
20067;SDS011;10194;50.824;7.134;2023-04-03T05:38:04;265.63;;;244.63;;
20067;SDS011;10194;50.824;7.134;2023-04-03T05:40:30;265.37;;;244.60;;
20067;SDS011;10194;50.824;7.134;2023-04-03T05:42:56;266.30;;;245.27;;
20067;SDS011;10194;50.824;7.134;2023-04-03T05:45:22;265.37;;;244.67;;
20067;SDS011;10194;50.824;7.134;2023-04-03T05:47:47;266.20;;;245.13;;
20067;SDS011;10194;50.824;7.134;2023-04-03T05:50:13;263.63;;;242.87;;
20067;SDS011;10194;50.824;7.134;2023-04-03T05:52:40;267.17;;;246.17;;
20067;SDS011;10194;50.824;7.134;2023-04-03T05:55:11;265.77;;;245.00;;
20067;SDS011;10194;50.824;7.134;2023-04-03T05:57:36;271.37;;;250.47;;
20067;SDS011;10194;50.824;7.134;2023-04-03T06:00:03;274.83;;;253.40;;
20067;SDS011;10194;50.824;7.134;2023-04-03T06:02:32;279.97;;;258.67;;
20067;SDS011;10194;50.824;7.134;2023-04-03T06:04:57;284.53;;;262.50;;
20067;SDS011;10194;50.824;7.134;2023-04-03T06:07:24;279.40;;;257.23;;
20067;SDS011;10194;50.824;7.134;2023-04-03T06:09:53;282.30;;;259.50;;
20067;SDS011;10194;50.824;7.134;2023-04-03T06:12:21;268.77;;;245.87;;
20067;SDS011;10194;50.824;7.134;2023-04-03T06:14:47;269.33;;;245.20;;
20067;SDS011;10194;50.824;7.134;2023-04-03T06:17:14;267.77;;;244.03;;
20067;SDS011;10194;50.824;7.134;2023-04-03T06:19:41;277.60;;;253.43;;
20067;SDS011;10194;50.824;7.134;2023-04-03T06:22:07;280.47;;;256.83;;
20067;SDS011;10194;50.824;7.134;2023-04-03T06:24:33;287.90;;;263.60;;
20067;SDS011;10194;50.824;7.134;2023-04-03T06:26:58;292.40;;;268.33;;
20067;SDS011;10194;50.824;7.134;2023-04-03T06:29:24;293.53;;;268.67;;
20067;SDS011;10194;50.824;7.134;2023-04-03T06:31:50;293.13;;;268.07;;
20067;SDS011;10194;50.824;7.134;2023-04-03T06:34:17;292.43;;;267.63;;
20067;SDS011;10194;50.824;7.134;2023-04-03T06:36:43;295.23;;;269.90;;
20067;SDS011;10194;50.824;7.134;2023-04-03T06:39:14;296.23;;;270.17;;
20067;SDS011;10194;50.824;7.134;2023-04-03T06:41:46;298.27;;;272.53;;
20067;SDS011;10194;50.824;7.134;2023-04-03T06:44:11;297.57;;;271.97;;
20067;SDS011;10194;50.824;7.134;2023-04-03T06:46:40;292.50;;;266.70;;
20067;SDS011;10194;50.824;7.134;2023-04-03T06:49:06;286.73;;;261.27;;
20067;SDS011;10194;50.824;7.134;2023-04-03T06:51:32;283.07;;;257.67;;
20067;SDS011;10194;50.824;7.134;2023-04-03T06:54:00;289.30;;;263.77;;
20067;SDS011;10194;50.824;7.134;2023-04-03T06:56:27;287.93;;;261.90;;
20067;SDS011;10194;50.824;7.134;2023-04-03T06:58:54;283.60;;;257.73;;
20067;SDS011;10194;50.824;7.134;2023-04-03T07:01:22;274.67;;;250.13;;
20067;SDS011;10194;50.824;7.134;2023-04-03T07:03:50;276.17;;;251.53;;
20067;SDS011;10194;50.824;7.134;2023-04-03T07:06:16;278.63;;;253.67;;
20067;SDS011;10194;50.824;7.134;2023-04-03T07:08:43;275.73;;;250.63;;
20067;SDS011;10194;50.824;7.134;2023-04-03T07:11:11;276.80;;;251.73;;
20067;SDS011;10194;50.824;7.134;2023-04-03T07:13:37;269.10;;;244.67;;
20067;SDS011;10194;50.824;7.134;2023-04-03T07:16:04;271.70;;;247.03;;
20067;SDS011;10194;50.824;7.134;2023-04-03T07:18:31;261.60;;;237.17;;
20067;SDS011;10194;50.824;7.134;2023-04-03T07:20:58;258.57;;;234.07;;
20067;SDS011;10194;50.824;7.134;2023-04-03T07:23:24;235.63;;;212.00;;
20067;SDS011;10194;50.824;7.134;2023-04-03T07:25:50;242.93;;;219.33;;
20067;SDS011;10194;50.824;7.134;2023-04-03T07:28:17;221.77;;;197.90;;
20067;SDS011;10194;50.824;7.134;2023-04-03T07:30:46;218.67;;;188.40;;
20067;SDS011;10194;50.824;7.134;2023-04-03T07:33:16;208.13;;;180.57;;
20067;SDS011;10194;50.824;7.134;2023-04-03T07:35:45;210.30;;;178.37;;
20067;SDS011;10194;50.824;7.134;2023-04-03T07:38:11;207.77;;;178.80;;
20067;SDS011;10194;50.824;7.134;2023-04-03T07:40:38;206.90;;;177.27;;
20067;SDS011;10194;50.824;7.134;2023-04-03T07:43:04;206.60;;;183.80;;
20067;SDS011;10194;50.824;7.134;2023-04-03T07:45:31;206.30;;;183.90;;
20067;SDS011;10194;50.824;7.134;2023-04-03T07:48:01;217.33;;;194.90;;
20067;SDS011;10194;50.824;7.134;2023-04-03T07:50:27;224.83;;;202.23;;
20067;SDS011;10194;50.824;7.134;2023-04-03T07:52:55;225.60;;;203.03;;
20067;SDS011;10194;50.824;7.134;2023-04-03T07:55:22;210.07;;;187.97;;
20067;SDS011;10194;50.824;7.134;2023-04-03T07:57:49;200.83;;;178.77;;
20067;SDS011;10194;50.824;7.134;2023-04-03T08:00:15;199.17;;;177.60;;
20067;SDS011;10194;50.824;7.134;2023-04-03T08:02:42;194.93;;;173.63;;
20067;SDS011;10194;50.824;7.134;2023-04-03T08:05:09;191.07;;;164.17;;
20067;SDS011;10194;50.824;7.134;2023-04-03T08:07:37;202.80;;;181.33;;
20067;SDS011;10194;50.824;7.134;2023-04-03T08:10:03;195.97;;;174.53;;
20067;SDS011;10194;50.824;7.134;2023-04-03T08:12:30;211.73;;;189.77;;
20067;SDS011;10194;50.824;7.134;2023-04-03T08:14:56;214.43;;;192.80;;
20067;SDS011;10194;50.824;7.134;2023-04-03T08:17:25;211.60;;;189.77;;
20067;SDS011;10194;50.824;7.134;2023-04-03T08:19:51;192.87;;;170.87;;
20067;SDS011;10194;50.824;7.134;2023-04-03T08:22:16;195.43;;;174.13;;
20067;SDS011;10194;50.824;7.134;2023-04-03T08:24:42;191.77;;;165.13;;
20067;SDS011;10194;50.824;7.134;2023-04-03T08:27:08;188.93;;;155.10;;
20067;SDS011;10194;50.824;7.134;2023-04-03T08:29:34;190.87;;;163.67;;
20067;SDS011;10194;50.824;7.134;2023-04-03T08:32:03;197.90;;;176.70;;
20067;SDS011;10194;50.824;7.134;2023-04-03T08:34:30;202.30;;;180.83;;
20067;SDS011;10194;50.824;7.134;2023-04-03T08:37:00;205.90;;;184.40;;
20067;SDS011;10194;50.824;7.134;2023-04-03T08:39:26;193.23;;;167.37;;
20067;SDS011;10194;50.824;7.134;2023-04-03T08:41:53;190.90;;;161.33;;
20067;SDS011;10194;50.824;7.134;2023-04-03T08:47:26;217.93;;;195.80;;
20067;SDS011;10194;50.824;7.134;2023-04-03T08:50:07;231.43;;;208.80;;
20067;SDS011;10194;50.824;7.134;2023-04-03T08:52:41;239.80;;;217.47;;
20067;SDS011;10194;50.824;7.134;2023-04-03T08:55:24;248.73;;;225.57;;
20067;SDS011;10194;50.824;7.134;2023-04-03T08:58:07;244.53;;;222.13;;
20067;SDS011;10194;50.824;7.134;2023-04-03T09:03:19;254.20;;;231.63;;
20067;SDS011;10194;50.824;7.134;2023-04-03T09:05:51;249.43;;;226.33;;
20067;SDS011;10194;50.824;7.134;2023-04-03T09:08:27;250.13;;;227.50;;
20067;SDS011;10194;50.824;7.134;2023-04-03T09:10:59;255.37;;;232.60;;
20067;SDS011;10194;50.824;7.134;2023-04-03T09:14:17;247.60;;;224.57;;
20067;SDS011;10194;50.824;7.134;2023-04-03T09:22:07;246.77;;;223.80;;
20067;SDS011;10194;50.824;7.134;2023-04-03T09:24:57;246.93;;;224.37;;
20067;SDS011;10194;50.824;7.134;2023-04-03T09:27:38;250.53;;;227.50;;
20067;SDS011;10194;50.824;7.134;2023-04-03T09:30:04;247.10;;;224.00;;
20067;SDS011;10194;50.824;7.134;2023-04-03T09:32:35;249.80;;;226.53;;
20067;SDS011;10194;50.824;7.134;2023-04-03T09:35:03;245.47;;;222.53;;
20067;SDS011;10194;50.824;7.134;2023-04-03T09:37:41;251.33;;;228.03;;
20067;SDS011;10194;50.824;7.134;2023-04-03T09:42:58;252.63;;;229.77;;
20067;SDS011;10194;50.824;7.134;2023-04-03T09:45:30;258.53;;;235.27;;
20067;SDS011;10194;50.824;7.134;2023-04-03T09:50:38;246.10;;;222.70;;
20067;SDS011;10194;50.824;7.134;2023-04-03T09:53:28;241.83;;;219.23;;
20067;SDS011;10194;50.824;7.134;2023-04-03T09:55:59;254.17;;;231.00;;
20067;SDS011;10194;50.824;7.134;2023-04-03T09:58:32;249.23;;;226.40;;
20067;SDS011;10194;50.824;7.134;2023-04-03T10:01:03;249.90;;;227.23;;
20067;SDS011;10194;50.824;7.134;2023-04-03T10:03:31;249.27;;;226.53;;
20067;SDS011;10194;50.824;7.134;2023-04-03T10:06:04;249.20;;;225.50;;
20067;SDS011;10194;50.824;7.134;2023-04-03T10:08:58;247.47;;;224.20;;
20067;SDS011;10194;50.824;7.134;2023-04-03T10:11:29;248.57;;;224.83;;
20067;SDS011;10194;50.824;7.134;2023-04-03T10:13:59;247.20;;;223.93;;
20067;SDS011;10194;50.824;7.134;2023-04-03T10:16:32;246.17;;;222.90;;
20067;SDS011;10194;50.824;7.134;2023-04-03T10:22:13;249.37;;;226.17;;
20067;SDS011;10194;50.824;7.134;2023-04-03T10:24:59;242.83;;;219.80;;
20067;SDS011;10194;50.824;7.134;2023-04-03T10:30:29;241.73;;;218.03;;
20067;SDS011;10194;50.824;7.134;2023-04-03T10:33:11;244.10;;;220.90;;
20067;SDS011;10194;50.824;7.134;2023-04-03T10:36:02;241.87;;;218.57;;
20067;SDS011;10194;50.824;7.134;2023-04-03T10:41:31;230.83;;;208.13;;
20067;SDS011;10194;50.824;7.134;2023-04-03T10:53:52;248.67;;;225.67;;
20067;SDS011;10194;50.824;7.134;2023-04-03T11:02:07;240.97;;;218.27;;
20067;SDS011;10194;50.824;7.134;2023-04-03T11:04:50;245.17;;;221.83;;
20067;SDS011;10194;50.824;7.134;2023-04-03T11:07:24;235.17;;;212.47;;
20067;SDS011;10194;50.824;7.134;2023-04-03T11:10:03;232.77;;;209.70;;
20067;SDS011;10194;50.824;7.134;2023-04-03T11:15:42;232.03;;;209.20;;
20067;SDS011;10194;50.824;7.134;2023-04-03T11:18:23;229.80;;;207.17;;
20067;SDS011;10194;50.824;7.134;2023-04-03T11:23:37;236.63;;;213.97;;
20067;SDS011;10194;50.824;7.134;2023-04-03T11:26:25;243.63;;;220.33;;
20067;SDS011;10194;50.824;7.134;2023-04-03T11:29:00;240.00;;;217.13;;
20067;SDS011;10194;50.824;7.134;2023-04-03T11:36:53;238.90;;;216.00;;
20067;SDS011;10194;50.824;7.134;2023-04-03T11:39:34;245.03;;;219.97;;
20067;SDS011;10194;50.824;7.134;2023-04-03T11:42:16;243.43;;;220.43;;
20067;SDS011;10194;50.824;7.134;2023-04-03T11:45:15;243.93;;;220.97;;
20067;SDS011;10194;50.824;7.134;2023-04-03T11:50:32;237.23;;;214.53;;
20067;SDS011;10194;50.824;7.134;2023-04-03T11:58:14;233.27;;;210.60;;
20067;SDS011;10194;50.824;7.134;2023-04-03T12:01:05;237.47;;;214.30;;
20067;SDS011;10194;50.824;7.134;2023-04-03T12:21:19;227.83;;;205.13;;
20067;SDS011;10194;50.824;7.134;2023-04-03T12:43:23;242.97;;;219.97;;
20067;SDS011;10194;50.824;7.134;2023-04-03T12:46:18;236.43;;;213.63;;
20067;SDS011;10194;50.824;7.134;2023-04-03T12:48:51;237.27;;;214.17;;
20067;SDS011;10194;50.824;7.134;2023-04-03T12:57:16;220.63;;;198.80;;
20067;SDS011;10194;50.824;7.134;2023-04-03T12:59:45;221.27;;;198.97;;
20067;SDS011;10194;50.824;7.134;2023-04-03T13:04:55;206.30;;;184.00;;
20067;SDS011;10194;50.824;7.134;2023-04-03T13:07:28;205.27;;;183.07;;
20067;SDS011;10194;50.824;7.134;2023-04-03T13:10:13;205.77;;;183.60;;
20067;SDS011;10194;50.824;7.134;2023-04-03T13:15:22;215.60;;;193.30;;
20067;SDS011;10194;50.824;7.134;2023-04-03T13:17:54;215.07;;;192.60;;
20067;SDS011;10194;50.824;7.134;2023-04-03T13:20:29;216.50;;;193.87;;
20067;SDS011;10194;50.824;7.134;2023-04-03T13:25:31;216.43;;;193.67;;
20067;SDS011;10194;50.824;7.134;2023-04-03T13:28:00;218.40;;;195.80;;
20067;SDS011;10194;50.824;7.134;2023-04-03T13:30:31;227.47;;;204.10;;
20067;SDS011;10194;50.824;7.134;2023-04-03T13:33:05;209.13;;;186.53;;
20067;SDS011;10194;50.824;7.134;2023-04-03T13:35:47;213.77;;;191.47;;
20067;SDS011;10194;50.824;7.134;2023-04-03T13:38:26;215.03;;;192.23;;
20067;SDS011;10194;50.824;7.134;2023-04-03T13:40:58;206.07;;;183.97;;
20067;SDS011;10194;50.824;7.134;2023-04-03T13:43:35;208.83;;;186.37;;
20067;SDS011;10194;50.824;7.134;2023-04-03T13:46:04;230.53;;;207.27;;
20067;SDS011;10194;50.824;7.134;2023-04-03T13:48:55;215.87;;;193.20;;
20067;SDS011;10194;50.824;7.134;2023-04-03T13:51:23;209.30;;;186.97;;
20067;SDS011;10194;50.824;7.134;2023-04-03T13:53:55;199.97;;;170.00;;
20067;SDS011;10194;50.824;7.134;2023-04-03T13:56:34;204.50;;;182.30;;
20067;SDS011;10194;50.824;7.134;2023-04-03T13:59:20;202.57;;;176.17;;
20067;SDS011;10194;50.824;7.134;2023-04-03T14:04:29;201.17;;;179.37;;
20067;SDS011;10194;50.824;7.134;2023-04-03T14:07:16;202.00;;;175.90;;
20067;SDS011;10194;50.824;7.134;2023-04-03T14:09:43;205.83;;;183.23;;
20067;SDS011;10194;50.824;7.134;2023-04-03T14:12:15;194.50;;;170.80;;
20067;SDS011;10194;50.824;7.134;2023-04-03T14:14:50;201.17;;;178.63;;
20067;SDS011;10194;50.824;7.134;2023-04-03T14:17:19;200.97;;;177.13;;
20067;SDS011;10194;50.824;7.134;2023-04-03T14:19:49;199.27;;;173.40;;
20067;SDS011;10194;50.824;7.134;2023-04-03T14:22:18;201.40;;;170.20;;
20067;SDS011;10194;50.824;7.134;2023-04-03T14:24:48;257.73;;;234.77;;
20067;SDS011;10194;50.824;7.134;2023-04-03T14:29:43;201.33;;;168.23;;
20067;SDS011;10194;50.824;7.134;2023-04-03T14:32:11;201.07;;;162.53;;
20067;SDS011;10194;50.824;7.134;2023-04-03T14:34:39;199.60;;;172.87;;
20067;SDS011;10194;50.824;7.134;2023-04-03T14:37:09;196.03;;;161.83;;
20067;SDS011;10194;50.824;7.134;2023-04-03T14:39:38;198.03;;;172.33;;
20067;SDS011;10194;50.824;7.134;2023-04-03T14:42:04;196.57;;;171.87;;
20067;SDS011;10194;50.824;7.134;2023-04-03T14:44:31;197.17;;;170.47;;
20067;SDS011;10194;50.824;7.134;2023-04-03T14:46:57;202.43;;;180.27;;
20067;SDS011;10194;50.824;7.134;2023-04-03T14:49:27;206.67;;;173.53;;
20067;SDS011;10194;50.824;7.134;2023-04-03T14:51:54;201.50;;;174.70;;
20067;SDS011;10194;50.824;7.134;2023-04-03T14:54:21;200.40;;;168.23;;
20067;SDS011;10194;50.824;7.134;2023-04-03T14:56:53;199.53;;;170.93;;
20067;SDS011;10194;50.824;7.134;2023-04-03T14:59:20;201.07;;;165.97;;
20067;SDS011;10194;50.824;7.134;2023-04-03T15:01:47;198.37;;;164.20;;
20067;SDS011;10194;50.824;7.134;2023-04-03T15:04:17;197.80;;;160.20;;
20067;SDS011;10194;50.824;7.134;2023-04-03T15:06:45;204.40;;;168.60;;
20067;SDS011;10194;50.824;7.134;2023-04-03T15:09:19;197.20;;;166.47;;
20067;SDS011;10194;50.824;7.134;2023-04-03T15:11:51;200.53;;;162.07;;
20067;SDS011;10194;50.824;7.134;2023-04-03T15:14:19;203.77;;;162.07;;
20067;SDS011;10194;50.824;7.134;2023-04-03T15:16:45;198.50;;;159.83;;
20067;SDS011;10194;50.824;7.134;2023-04-03T15:19:12;213.20;;;165.40;;
20067;SDS011;10194;50.824;7.134;2023-04-03T15:21:38;201.13;;;165.50;;
20067;SDS011;10194;50.824;7.134;2023-04-03T15:24:04;200.93;;;162.37;;
20067;SDS011;10194;50.824;7.134;2023-04-03T15:26:31;206.37;;;168.67;;
20067;SDS011;10194;50.824;7.134;2023-04-03T15:28:57;198.87;;;162.40;;
20067;SDS011;10194;50.824;7.134;2023-04-03T15:31:23;198.00;;;165.20;;
20067;SDS011;10194;50.824;7.134;2023-04-03T15:33:49;206.50;;;170.33;;
20067;SDS011;10194;50.824;7.134;2023-04-03T15:36:15;201.33;;;169.53;;
20067;SDS011;10194;50.824;7.134;2023-04-03T15:38:40;198.43;;;173.50;;
20067;SDS011;10194;50.824;7.134;2023-04-03T15:41:06;201.03;;;174.17;;
20067;SDS011;10194;50.824;7.134;2023-04-03T15:43:32;199.07;;;171.43;;
20067;SDS011;10194;50.824;7.134;2023-04-03T15:46:00;205.60;;;179.10;;
20067;SDS011;10194;50.824;7.134;2023-04-03T15:48:27;207.27;;;183.87;;
20067;SDS011;10194;50.824;7.134;2023-04-03T15:50:56;202.47;;;176.67;;
20067;SDS011;10194;50.824;7.134;2023-04-03T15:53:22;200.53;;;175.70;;
20067;SDS011;10194;50.824;7.134;2023-04-03T15:55:48;198.10;;;172.67;;
20067;SDS011;10194;50.824;7.134;2023-04-03T15:58:14;198.10;;;172.03;;
20067;SDS011;10194;50.824;7.134;2023-04-03T16:00:40;199.77;;;169.30;;
20067;SDS011;10194;50.824;7.134;2023-04-03T16:03:08;200.67;;;173.27;;
20067;SDS011;10194;50.824;7.134;2023-04-03T16:05:38;204.47;;;180.47;;
20067;SDS011;10194;50.824;7.134;2023-04-03T16:08:05;195.30;;;169.67;;